createdAt,value
2022-10-28T00:01:07.986Z,101073.31
2022-10-28T00:03:39.545Z,101077.75
2022-10-28T00:06:09.654Z,101072.28
2022-10-28T00:08:37.657Z,101064.78
2022-10-28T00:11:07.438Z,101050.59
2022-10-28T00:13:37.968Z,101053.38
2022-10-28T00:16:09.274Z,101072.22
2022-10-28T00:18:37.298Z,101077.53
2022-10-28T00:21:07.167Z,101073.00
2022-10-28T00:23:35.538Z,101077.19
2022-10-28T00:26:08.117Z,101057.97
2022-10-28T00:28:35.923Z,101060.19
2022-10-28T00:31:10.288Z,101060.31
2022-10-28T00:33:38.246Z,101070.69
2022-10-28T00:36:11.683Z,101070.00
2022-10-28T00:38:39.950Z,101072.81
2022-10-28T00:41:08.541Z,101069.09
2022-10-28T00:43:38.354Z,101095.16
2022-10-28T00:46:13.910Z,101089.72
2022-10-28T00:48:44.682Z,101071.66
2022-10-28T00:51:12.695Z,101070.63
2022-10-28T00:53:42.210Z,101063.47
2022-10-28T00:56:11.083Z,101055.75
2022-10-28T00:58:39.047Z,101061.38
2022-10-28T01:01:06.882Z,101068.72
2022-10-28T01:03:37.713Z,101071.81
2022-10-28T01:06:06.536Z,101070.97
2022-10-28T01:08:34.425Z,101072.03
2022-10-28T01:11:27.643Z,101056.34
2022-10-28T01:14:10.940Z,101047.31
2022-10-28T01:16:47.874Z,101061.50
2022-10-28T01:19:54.331Z,101053.00
2022-10-28T01:22:26.803Z,101051.13
2022-10-28T01:25:15.557Z,101053.38
2022-10-28T01:28:29.497Z,101043.28
2022-10-28T01:31:16.742Z,101040.88
2022-10-28T01:33:53.464Z,101026.16
2022-10-28T01:36:33.515Z,101028.91
2022-10-28T01:39:10.569Z,101039.19
2022-10-28T01:41:48.545Z,101048.34
2022-10-28T01:44:25.928Z,101054.09
2022-10-28T01:47:01.158Z,101044.72
2022-10-28T01:49:34.813Z,101056.44
2022-10-28T01:52:06.092Z,101039.53
2022-10-28T01:54:35.715Z,101056.78
2022-10-28T01:57:06.032Z,101048.50
2022-10-28T01:59:35.592Z,101046.06
2022-10-28T02:02:04.858Z,101021.97
2022-10-28T02:04:32.658Z,101044.41
2022-10-28T02:07:01.858Z,101045.25
2022-10-28T02:09:42.216Z,101035.66
2022-10-28T02:12:21.801Z,101036.69
2022-10-28T02:15:14.970Z,101033.25
2022-10-28T02:17:57.834Z,101035.75
2022-10-28T02:20:35.693Z,101036.72
2022-10-28T02:23:16.465Z,101019.59
2022-10-28T02:25:52.419Z,101005.19
2022-10-28T02:28:25.840Z,101021.78
2022-10-28T02:31:00.209Z,101016.09
2022-10-28T02:33:33.580Z,101035.22
2022-10-28T02:36:05.877Z,100987.25
2022-10-28T02:38:37.345Z,101016.19
2022-10-28T02:41:10.431Z,101016.31
2022-10-28T02:43:39.781Z,101031.56
2022-10-28T02:46:09.291Z,101033.16
2022-10-28T02:48:43.941Z,101019.50
2022-10-28T02:51:15.093Z,101018.75
2022-10-28T02:53:53.931Z,101014.66
2022-10-28T02:56:22.943Z,101008.72
2022-10-28T02:58:51.014Z,100995.81
2022-10-28T03:01:18.885Z,100994.00
2022-10-28T03:03:48.070Z,100999.47
2022-10-28T03:06:15.924Z,100964.72
2022-10-28T03:08:43.730Z,100995.13
2022-10-28T03:11:11.594Z,100989.00
2022-10-28T03:13:39.385Z,100987.34
2022-10-28T03:16:07.339Z,100993.50
2022-10-28T03:18:35.090Z,100987.94
2022-10-28T03:21:04.347Z,100990.53
2022-10-28T03:23:32.203Z,100985.97
2022-10-28T03:26:00.080Z,100999.31
2022-10-28T03:28:27.898Z,100991.50
2022-10-28T03:30:55.771Z,100971.84
2022-10-28T03:33:23.571Z,101000.47
2022-10-28T03:35:51.420Z,100997.94
2022-10-28T03:38:20.538Z,101001.16
2022-10-28T03:40:48.979Z,100991.19
2022-10-28T03:43:16.971Z,101016.75
2022-10-28T03:45:45.454Z,101021.19
2022-10-28T03:48:13.289Z,101035.66
2022-10-28T03:50:41.187Z,101023.13
2022-10-28T03:53:09.175Z,101041.63
2022-10-28T03:55:38.361Z,101048.75
2022-10-28T03:58:06.115Z,101034.19
2022-10-28T04:00:33.971Z,101005.34
2022-10-28T04:03:01.781Z,100975.75
2022-10-28T04:05:29.628Z,100966.94
2022-10-28T04:07:57.346Z,100969.94
2022-10-28T04:10:25.189Z,100947.56
2022-10-28T04:12:54.607Z,100945.22
2022-10-28T04:15:22.517Z,100945.13
2022-10-28T04:17:50.301Z,100948.00
2022-10-28T04:20:18.129Z,100963.00
2022-10-28T04:22:45.861Z,100968.09
2022-10-28T04:27:46.488Z,101011.63
2022-10-28T04:30:16.330Z,100988.78
2022-10-28T04:32:45.191Z,100982.25
2022-10-28T04:35:14.160Z,100960.03
2022-10-28T04:37:42.485Z,100945.94
2022-10-28T04:40:10.916Z,100961.47
2022-10-28T04:42:38.799Z,100957.78
2022-10-28T04:45:07.847Z,100958.94
2022-10-28T04:47:36.977Z,100942.38
2022-10-28T04:50:05.625Z,100952.13
2022-10-28T04:52:33.408Z,100936.28
2022-10-28T04:55:01.264Z,100938.72
2022-10-28T04:57:29.172Z,100940.75
2022-10-28T04:59:56.936Z,100944.09
2022-10-28T05:02:24.922Z,100928.38
2022-10-28T05:04:54.166Z,100907.41
2022-10-28T05:07:23.571Z,100895.78
2022-10-28T05:09:51.464Z,100927.94
2022-10-28T05:12:19.303Z,100934.00
2022-10-28T05:14:48.991Z,100924.78
2022-10-28T05:17:18.985Z,100951.66
2022-10-28T05:19:46.717Z,100941.13
2022-10-28T05:22:15.817Z,100930.22
2022-10-28T05:24:43.623Z,100943.81
2022-10-28T05:27:12.506Z,100936.19
2022-10-28T05:29:40.274Z,100924.22
2022-10-28T05:32:08.084Z,100936.22
2022-10-28T05:34:36.207Z,100924.34
2022-10-28T05:37:04.069Z,100935.63
2022-10-28T05:39:33.212Z,100936.13
2022-10-28T05:42:01.050Z,100933.63
2022-10-28T05:44:28.818Z,100896.34
2022-10-28T05:46:56.558Z,100929.94
2022-10-28T05:49:24.389Z,100920.56
2022-10-28T05:51:52.155Z,100932.41
2022-10-28T05:54:20.217Z,100923.47
2022-10-28T05:56:49.584Z,100945.31
2022-10-28T05:59:17.425Z,100937.94
2022-10-28T06:01:45.267Z,100942.44
2022-10-28T06:04:13.085Z,100939.47
2022-10-28T06:06:40.932Z,100947.28
2022-10-28T06:09:08.750Z,100955.25
2022-10-28T06:11:35.305Z,100951.06
2022-10-28T06:14:04.433Z,100956.22
2022-10-28T06:16:32.367Z,100951.47
2022-10-28T06:19:00.400Z,100953.72
2022-10-28T06:21:28.137Z,100944.47
2022-10-28T06:23:55.909Z,100972.09
2022-10-28T06:26:23.743Z,100935.00
2022-10-28T06:28:51.511Z,100956.19
2022-10-28T06:31:20.610Z,100957.09
2022-10-28T06:33:48.409Z,100920.75
2022-10-28T06:36:16.453Z,100954.88
2022-10-28T06:38:44.227Z,100962.34
2022-10-28T06:41:12.085Z,100954.88
2022-10-28T06:43:40.011Z,100956.56
2022-10-28T06:46:07.776Z,100967.34
2022-10-28T06:48:38.430Z,100956.91
2022-10-28T06:51:06.669Z,100936.91
2022-10-28T06:53:34.386Z,100965.50
2022-10-28T06:56:02.310Z,100972.41
2022-10-28T06:58:30.088Z,100973.59
2022-10-28T07:00:57.987Z,100982.16
2022-10-28T07:03:25.781Z,100962.88
2022-10-28T07:05:56.131Z,100957.03
2022-10-28T07:08:24.013Z,100961.47
2022-10-28T07:10:56.341Z,100971.97
2022-10-28T07:13:24.490Z,100966.13
2022-10-28T07:15:59.696Z,100972.66
2022-10-28T07:18:29.839Z,100970.19
2022-10-28T07:21:01.086Z,100971.59
2022-10-28T07:23:31.452Z,100977.31
2022-10-28T07:25:59.525Z,100967.53
2022-10-28T07:28:28.161Z,100985.88
2022-10-28T07:30:56.420Z,101002.31
2022-10-28T07:33:24.354Z,100999.13
2022-10-28T07:35:52.150Z,101001.84
2022-10-28T07:38:21.317Z,101003.84
2022-10-28T07:40:49.232Z,100991.47
2022-10-28T07:43:17.092Z,101004.00
2022-10-28T07:45:45.002Z,100996.00
2022-10-28T07:48:12.865Z,100998.84
2022-10-28T07:50:41.355Z,100991.44
2022-10-28T07:53:09.289Z,100994.41
2022-10-28T07:55:38.733Z,100988.16
2022-10-28T07:58:06.719Z,100985.00
2022-10-28T08:00:34.920Z,100990.81
2022-10-28T08:03:03.720Z,100983.94
2022-10-28T08:05:31.508Z,100974.28
2022-10-28T08:07:59.257Z,100973.69
2022-10-28T08:10:27.748Z,100975.00
2022-10-28T08:12:58.873Z,100981.25
2022-10-28T08:15:27.288Z,100976.44
2022-10-28T08:17:55.678Z,100990.00
2022-10-28T08:20:24.520Z,100982.09
2022-10-28T08:22:52.698Z,100995.50
2022-10-28T08:25:20.869Z,101003.03
2022-10-28T08:27:48.591Z,100985.50
2022-10-28T08:30:18.493Z,100994.13
2022-10-28T08:32:46.325Z,100992.88
2022-10-28T08:35:14.430Z,100989.97
2022-10-28T08:37:46.018Z,100988.28
2022-10-28T08:40:14.687Z,100980.47
2022-10-28T08:42:47.407Z,100981.44
2022-10-28T08:45:41.636Z,100977.75
2022-10-28T08:48:20.083Z,100976.00
2022-10-28T08:50:53.201Z,100979.00
2022-10-28T08:53:25.734Z,100974.47
2022-10-28T08:55:59.553Z,100992.94
2022-10-28T08:58:33.205Z,100990.75
2022-10-28T09:01:02.768Z,100995.94
2022-10-28T09:03:36.768Z,101003.38
2022-10-28T09:06:08.937Z,100992.34
2022-10-28T09:08:39.789Z,100997.31
2022-10-28T09:11:38.350Z,100978.84
2022-10-28T09:14:22.082Z,100983.63
2022-10-28T09:16:58.561Z,100991.81
2022-10-28T09:19:40.952Z,100997.63
2022-10-28T09:22:21.794Z,100993.72
2022-10-28T09:24:54.570Z,100987.81
2022-10-28T09:27:53.739Z,100983.31
2022-10-28T09:30:33.735Z,100987.31
2022-10-28T09:33:14.384Z,100976.25
2022-10-28T09:35:44.293Z,100979.47
2022-10-28T09:38:19.328Z,100969.31
2022-10-28T09:40:54.075Z,100967.16
2022-10-28T09:43:27.930Z,100971.31
2022-10-28T09:46:01.321Z,100966.53
2022-10-28T09:48:33.981Z,100968.41
2022-10-28T09:51:02.110Z,100967.06
2022-10-28T09:53:42.839Z,100964.22
2022-10-28T09:56:12.007Z,100973.13
2022-10-28T09:58:45.935Z,100970.09
2022-10-28T10:01:14.569Z,100972.31
2022-10-28T10:03:45.120Z,100970.25
2022-10-28T10:06:16.516Z,100967.91
2022-10-28T10:08:45.123Z,100975.50
2022-10-28T10:11:22.820Z,100976.84
2022-10-28T10:13:51.159Z,100983.63
2022-10-28T10:16:25.221Z,100987.34
2022-10-28T10:18:58.749Z,100975.53
2022-10-28T10:21:42.497Z,100979.31
2022-10-28T10:24:33.623Z,100959.56
2022-10-28T10:27:04.924Z,100967.09
2022-10-28T10:29:33.276Z,100976.47
2022-10-28T10:32:16.910Z,100963.00
2022-10-28T10:34:57.613Z,100968.28
2022-10-28T10:37:25.559Z,100961.91
2022-10-28T10:40:16.350Z,100960.56
2022-10-28T10:42:57.358Z,100951.16
2022-10-28T10:45:32.513Z,100950.53
2022-10-28T10:48:12.696Z,100937.91
2022-10-28T10:50:43.159Z,100932.41
2022-10-28T10:53:21.081Z,100947.63
2022-10-28T10:55:55.431Z,100942.59
2022-10-28T10:58:25.710Z,100935.41
2022-10-28T11:00:55.697Z,100929.09
2022-10-28T11:03:28.415Z,100937.63
2022-10-28T11:06:22.148Z,100921.06
2022-10-28T11:08:48.146Z,100924.91
2022-10-28T11:11:20.677Z,100922.31
2022-10-28T11:13:50.277Z,100920.09
2022-10-28T11:16:20.702Z,100917.69
2022-10-28T11:18:51.689Z,100910.72
2022-10-28T11:21:37.476Z,100917.84
2022-10-28T11:24:21.269Z,100892.59
2022-10-28T11:26:56.521Z,100899.84
2022-10-28T11:29:25.569Z,100885.31
2022-10-28T11:32:11.518Z,100903.34
2022-10-28T11:34:56.815Z,100905.28
2022-10-28T11:37:36.486Z,100896.88
2022-10-28T11:40:14.407Z,100896.66
2022-10-28T11:42:53.248Z,100898.97
2022-10-28T11:45:28.023Z,100893.81
2022-10-28T11:48:12.224Z,100885.06
2022-10-28T11:50:50.207Z,100874.19
2022-10-28T11:53:52.503Z,100842.44
2022-10-28T11:56:32.175Z,100854.38
2022-10-28T11:59:23.244Z,100851.81
2022-10-28T12:01:59.975Z,100834.94
2022-10-28T12:04:48.677Z,100855.94
2022-10-28T12:07:35.572Z,100853.88
2022-10-28T12:10:20.434Z,100845.31
2022-10-28T12:12:57.734Z,100851.88
2022-10-28T12:15:35.949Z,100855.00
2022-10-28T12:18:10.698Z,100859.50
2022-10-28T12:20:47.937Z,100852.00
2022-10-28T12:23:19.787Z,100845.88
2022-10-28T12:25:52.796Z,100840.56
2022-10-28T12:28:23.869Z,100830.34
2022-10-28T12:30:53.720Z,100835.28
2022-10-28T12:33:26.602Z,100829.69
2022-10-28T12:36:01.762Z,100826.94
2022-10-28T12:38:35.720Z,100821.56
2022-10-28T12:41:12.800Z,100814.94
2022-10-28T12:43:45.201Z,100821.69
2022-10-28T12:46:21.416Z,100808.31
2022-10-28T12:48:56.114Z,100799.19
2022-10-28T12:51:31.505Z,100815.94
2022-10-28T12:54:04.392Z,100801.41
2022-10-28T12:56:38.573Z,100814.72
2022-10-28T12:59:12.966Z,100800.25
2022-10-28T13:01:42.167Z,100788.19
2022-10-28T13:04:13.478Z,100781.34
2022-10-28T13:07:07.702Z,100808.03
2022-10-28T13:09:46.155Z,100791.06
2022-10-28T13:12:47.085Z,100807.19
2022-10-28T13:15:40.688Z,100804.25
2022-10-28T13:18:31.101Z,100805.47
2022-10-28T13:21:12.230Z,100809.34
2022-10-28T13:23:46.255Z,100803.56
2022-10-28T13:26:23.496Z,100801.97
2022-10-28T13:28:55.344Z,100804.59
2022-10-28T13:31:23.680Z,100796.56
2022-10-28T13:33:58.024Z,100805.25
2022-10-28T13:36:32.563Z,100802.41
2022-10-28T13:39:04.504Z,100794.53
2022-10-28T13:41:42.238Z,100812.16
2022-10-28T13:44:29.303Z,100800.31
2022-10-28T13:47:26.223Z,100788.97
2022-10-28T13:50:26.118Z,100787.31
2022-10-28T13:53:39.924Z,100800.03
2022-10-28T13:56:23.150Z,100795.59
2022-10-28T13:58:53.581Z,100798.19
2022-10-28T14:02:33.171Z,100799.19
2022-10-28T14:05:00.514Z,100765.25
2022-10-28T14:07:31.601Z,100776.13
2022-10-28T14:10:23.512Z,100767.91
2022-10-28T14:12:54.915Z,100782.50
2022-10-28T14:15:27.040Z,100797.59
2022-10-28T14:18:10.255Z,100785.72
2022-10-28T14:20:59.023Z,100785.66
2022-10-28T14:24:06.760Z,100796.44
2022-10-28T14:27:22.931Z,100798.94
2022-10-28T14:30:05.146Z,100769.50
2022-10-28T14:32:43.660Z,100810.00
2022-10-28T14:35:24.803Z,100799.78
2022-10-28T14:38:18.319Z,100801.38
2022-10-28T14:40:50.777Z,100788.34
2022-10-28T14:43:43.225Z,100802.22
2022-10-28T14:46:30.746Z,100799.75
2022-10-28T14:49:00.575Z,100805.31
2022-10-28T14:51:38.815Z,100791.69
2022-10-28T14:54:16.096Z,100799.22
2022-10-28T14:56:44.748Z,100795.13
2022-10-28T14:59:32.638Z,100788.84
2022-10-28T15:02:05.202Z,100800.06
2022-10-28T15:04:33.492Z,100791.63
2022-10-28T15:07:03.546Z,100805.97
2022-10-28T15:09:34.942Z,100800.44
2022-10-28T15:12:06.821Z,100759.97
2022-10-28T15:14:37.509Z,100796.88
2022-10-28T15:17:16.682Z,100803.66
2022-10-28T15:19:45.525Z,100802.44
2022-10-28T15:22:18.168Z,100805.06
2022-10-28T15:24:55.454Z,100807.34
2022-10-28T15:27:25.693Z,100782.94
2022-10-28T15:29:54.077Z,100770.00
2022-10-28T15:32:30.818Z,100801.88
2022-10-28T15:34:58.959Z,100811.22
2022-10-28T15:37:29.929Z,100803.06
2022-10-28T15:40:14.256Z,100818.13
2022-10-28T15:42:45.761Z,100817.88
2022-10-28T15:45:19.634Z,100826.03
2022-10-28T15:47:48.462Z,100823.78
2022-10-28T15:50:33.074Z,100808.88
2022-10-28T15:53:32.148Z,100817.81
2022-10-28T15:56:18.449Z,100815.25
2022-10-28T15:58:48.376Z,100822.69
2022-10-28T16:01:31.677Z,100820.22
2022-10-28T16:04:00.227Z,100812.50
2022-10-28T16:06:31.602Z,100810.38
2022-10-28T16:09:03.849Z,100820.19
2022-10-28T16:11:32.999Z,100822.44
2022-10-28T16:14:21.749Z,100824.38
2022-10-28T16:16:49.999Z,100827.72
2022-10-28T16:19:28.343Z,100832.13
2022-10-28T16:21:56.492Z,100829.91
2022-10-28T16:24:25.809Z,100812.00
2022-10-28T16:26:53.793Z,100827.72
2022-10-28T16:29:21.554Z,100836.78
2022-10-28T16:31:52.896Z,100847.25
2022-10-28T16:34:20.711Z,100841.19
2022-10-28T16:36:48.675Z,100837.03
2022-10-28T16:39:16.597Z,100831.50
2022-10-28T16:41:45.792Z,100822.09
2022-10-28T16:44:19.168Z,100828.72
2022-10-28T16:46:46.969Z,100853.03
2022-10-28T16:49:14.935Z,100846.66
2022-10-28T16:51:42.714Z,100827.91
2022-10-28T16:54:11.374Z,100836.97
2022-10-28T16:56:39.163Z,100850.22
2022-10-28T16:59:08.510Z,100856.03
2022-10-28T17:01:36.521Z,100860.72
2022-10-28T17:04:04.624Z,100849.63
2022-10-28T17:06:32.483Z,100865.28
2022-10-28T17:09:03.289Z,100864.72
2022-10-28T17:14:00.016Z,100867.91
2022-10-28T17:16:29.217Z,100867.56
2022-10-28T17:18:57.323Z,100852.28
2022-10-28T17:21:28.694Z,100840.97
2022-10-28T17:23:56.432Z,100857.00
2022-10-28T17:26:24.308Z,100859.72
2022-10-28T17:28:52.961Z,100843.16
2022-10-28T17:31:24.783Z,100866.81
2022-10-28T17:33:57.901Z,100867.84
2022-10-28T17:36:25.815Z,100873.91
2022-10-28T17:38:53.759Z,100856.38
2022-10-28T17:41:21.688Z,100883.66
2022-10-28T17:43:52.907Z,100874.06
2022-10-28T17:46:21.176Z,100892.28
2022-10-28T17:48:49.490Z,100904.72
2022-10-28T17:51:20.841Z,100891.81
2022-10-28T17:53:53.674Z,100873.16
2022-10-28T17:56:21.591Z,100906.75
2022-10-28T17:58:49.813Z,100880.28
2022-10-28T18:01:18.090Z,100901.09
2022-10-28T18:03:46.083Z,100912.53
2022-10-28T18:06:14.181Z,100913.88
2022-10-28T18:08:44.739Z,100917.13
2022-10-28T18:11:20.921Z,100918.41
2022-10-28T18:13:52.842Z,100924.13
2022-10-28T18:16:24.195Z,100926.19
2022-10-28T18:18:53.864Z,100919.91
2022-10-28T18:21:22.938Z,100915.06
2022-10-28T18:23:54.436Z,100930.41
2022-10-28T18:26:24.440Z,100928.44
2022-10-28T18:28:52.289Z,100903.00
2022-10-28T18:31:21.369Z,100929.00
2022-10-28T18:33:49.280Z,100926.81
2022-10-28T18:36:19.322Z,100927.63
2022-10-28T18:38:50.139Z,100924.78
2022-10-28T18:41:20.732Z,100923.84
2022-10-28T18:43:48.882Z,100918.47
2022-10-28T18:46:17.407Z,100930.75
2022-10-28T18:48:45.266Z,100936.16
2022-10-28T18:51:13.984Z,100935.00
2022-10-28T18:53:43.753Z,100931.56
2022-10-28T18:56:13.692Z,100924.50
2022-10-28T18:58:43.294Z,100946.59
2022-10-28T19:01:13.521Z,100930.09
2022-10-28T19:03:42.392Z,100938.50
2022-10-28T19:06:11.788Z,100933.91
2022-10-28T19:08:40.930Z,100930.75
2022-10-28T19:11:11.267Z,100928.31
2022-10-28T19:13:40.866Z,100936.75
2022-10-28T19:18:40.549Z,100927.00
2022-10-28T19:21:11.372Z,100906.22
2022-10-28T19:23:39.646Z,100924.50
2022-10-28T19:26:08.292Z,100909.88
2022-10-28T19:28:40.138Z,100925.75
2022-10-28T19:31:11.832Z,100924.00
2022-10-28T19:33:39.964Z,100934.84
2022-10-28T19:36:11.248Z,100943.66
2022-10-28T19:38:39.697Z,100922.25
2022-10-28T19:41:10.084Z,100941.66
2022-10-28T19:43:38.271Z,100920.44
2022-10-28T19:46:08.512Z,100939.06
2022-10-28T19:48:38.181Z,100922.06
2022-10-28T19:51:06.111Z,100941.53
2022-10-28T19:53:34.120Z,100940.53
2022-10-28T19:56:04.288Z,100947.16
2022-10-28T19:58:33.311Z,100946.94
2022-10-28T20:01:03.460Z,100931.47
2022-10-28T20:03:34.538Z,100940.44
2022-10-28T20:06:07.836Z,100937.81
2022-10-28T20:08:36.580Z,100951.28
2022-10-28T20:11:07.000Z,100922.25
2022-10-28T20:13:35.784Z,100942.44
2022-10-28T20:16:05.715Z,100955.75
2022-10-28T20:18:34.550Z,100954.19
2022-10-28T20:21:10.752Z,100941.22
2022-10-28T20:23:39.045Z,100953.50
2022-10-28T20:26:08.404Z,100934.97
2022-10-28T20:28:36.871Z,100943.41
2022-10-28T20:31:10.935Z,100976.19
2022-10-28T20:33:41.329Z,100947.66
2022-10-28T20:36:23.363Z,100972.03
2022-10-28T20:38:54.349Z,100954.28
2022-10-28T20:41:25.713Z,100980.16
2022-10-28T20:43:54.809Z,100981.06
2022-10-28T20:46:23.313Z,100953.84
2022-10-28T20:48:54.114Z,100963.09
2022-10-28T20:51:25.225Z,100963.91
2022-10-28T20:53:53.224Z,100981.16
2022-10-28T20:56:23.749Z,100982.72
2022-10-28T20:58:52.081Z,100970.41
2022-10-28T21:01:21.802Z,100987.47
2022-10-28T21:03:50.761Z,100995.25
2022-10-28T21:06:18.964Z,100995.47
2022-10-28T21:08:48.503Z,100978.72
2022-10-28T21:11:17.949Z,100995.25
2022-10-28T21:13:51.817Z,100996.25
2022-10-28T21:16:19.806Z,100978.38
2022-10-28T21:18:47.880Z,100978.38
2022-10-28T21:21:16.448Z,100998.06
2022-10-28T21:23:44.673Z,100997.91
2022-10-28T21:26:14.311Z,100997.78
2022-10-28T21:28:42.397Z,100998.66
2022-10-28T21:31:12.502Z,101003.28
2022-10-28T21:33:41.060Z,100976.97
2022-10-28T21:36:12.308Z,100989.09
2022-10-28T21:38:40.364Z,100998.28
2022-10-28T21:41:10.979Z,101013.97
2022-10-28T21:43:43.060Z,101006.94
2022-10-28T21:46:11.433Z,101009.44
2022-10-28T21:48:39.389Z,101019.22
2022-10-28T21:51:11.831Z,101018.50
2022-10-28T21:53:45.927Z,101030.97
2022-10-28T21:56:18.307Z,101027.06
2022-10-28T21:58:49.890Z,101016.69
2022-10-28T22:01:20.689Z,101023.44
2022-10-28T22:03:49.071Z,101022.50
2022-10-28T22:06:17.066Z,101029.63
2022-10-28T22:08:46.805Z,101026.28
2022-10-28T22:11:16.484Z,101034.28
2022-10-28T22:13:44.701Z,101044.13
2022-10-28T22:16:15.345Z,101038.84
2022-10-28T22:18:43.856Z,101027.78
2022-10-28T22:21:13.940Z,101029.88
2022-10-28T22:23:41.828Z,101027.91
2022-10-28T22:26:11.662Z,101038.41
2022-10-28T22:28:39.853Z,101039.31
2022-10-28T22:31:09.457Z,101048.34
2022-10-28T22:33:39.375Z,101043.97
2022-10-28T22:36:09.749Z,101037.81
2022-10-28T22:38:37.666Z,101034.16
2022-10-28T22:41:07.615Z,101035.72
2022-10-28T22:43:36.070Z,101030.81
2022-10-28T22:46:04.390Z,101036.97
2022-10-28T22:48:33.482Z,101034.34
2022-10-28T22:51:03.519Z,101038.59
2022-10-28T22:53:31.594Z,101027.44
2022-10-28T22:56:01.033Z,101027.75
2022-10-28T22:58:29.231Z,101037.72
2022-10-28T23:01:06.005Z,101041.22
2022-10-28T23:03:36.545Z,101033.09
2022-10-28T23:06:06.369Z,101034.84
2022-10-28T23:08:34.586Z,101027.13
2022-10-28T23:11:02.387Z,101027.91
2022-10-28T23:13:30.485Z,101025.34
2022-10-28T23:16:03.049Z,101031.34
2022-10-28T23:18:30.994Z,101029.69
2022-10-28T23:21:06.284Z,101023.03
2022-10-28T23:23:34.197Z,101030.59
2022-10-28T23:26:02.065Z,101024.00
2022-10-28T23:28:29.935Z,101011.38
2022-10-28T23:31:00.862Z,101027.78
2022-10-28T23:33:30.151Z,101029.13
2022-10-28T23:35:58.561Z,101027.69
2022-10-28T23:38:28.203Z,101011.09
2022-10-28T23:41:00.698Z,101028.69
2022-10-28T23:43:29.007Z,101035.19
2022-10-28T23:45:57.340Z,101041.06
2022-10-28T23:48:26.290Z,101033.75
2022-10-28T23:50:54.396Z,101047.44
2022-10-28T23:53:22.911Z,101051.63
2022-10-28T23:55:52.944Z,101041.53
2022-10-28T23:58:22.432Z,101047.53
